Time;durP1;ratioP1;P1;durP2;ratioP2;P2;SDS_P1;SDS_P2;PMS_P1;PMS_P2;Temp;Humidity;BMP_temperature;BMP_pressure;BME280_temperature;BME280_humidity;BME280_pressure;Samples;Min_cycle;Max_cycle;Signal;HPM_P1;HPM_P2
2021/12/01 00:01:57;;;;;;;4.73;4.33;;;;;;;;;;5034235;28;25084;-69
2021/12/01 00:04:22;;;;;;;4.47;4.10;;;;;;;;;;5038540;28;20594;-69
2021/12/01 00:06:47;;;;;;;3.77;3.50;;;;;;;;;;5039095;28;25082;-68
2021/12/01 00:09:13;;;;;;;4.83;4.40;;;;;;;;;;5035288;28;25087;-69
2021/12/01 00:11:38;;;;;;;4.27;3.97;;;;;;;;;;5036400;28;25136;-69
2021/12/01 00:14:04;;;;;;;4.40;4.00;;;;;;;;;;5027107;28;20221;-69
2021/12/01 00:16:29;;;;;;;4.80;4.40;;;;;;;;;;5035465;28;20655;-70
2021/12/01 00:18:54;;;;;;;5.40;4.27;;;;;;;;;;5033359;28;25087;-70
2021/12/01 00:21:20;;;;;;;4.80;4.40;;;;;;;;;;5036375;28;25081;-68
2021/12/01 00:23:45;;;;;;;4.10;3.73;;;;;;;;;;5034684;28;25079;-69
2021/12/01 00:26:10;;;;;;;5.43;4.90;;;;;;;;;;5035743;28;25426;-69
2021/12/01 00:28:36;;;;;;;4.83;4.43;;;;;;;;;;5038266;28;25129;-69
2021/12/01 00:31:02;;;;;;;5.60;5.10;;;;;;;;;;5037355;28;20190;-70
2021/12/01 00:33:27;;;;;;;6.13;5.63;;;;;;;;;;5037549;28;25130;-69
2021/12/01 00:35:54;;;;;;;6.27;5.67;;;;;;;;;;5037167;28;25117;-70
2021/12/01 00:38:20;;;;;;;8.90;6.13;;;;;;;;;;5038859;28;25063;-69
2021/12/01 00:40:46;;;;;;;5.67;5.17;;;;;;;;;;5034692;28;25146;-70
2021/12/01 00:43:16;;;;;;;6.50;5.90;;;;;;;;;;5034210;28;25101;-69
2021/12/01 00:45:57;;;;;;;6.67;6.07;;;;;;;;;;5040100;28;20174;-69
2021/12/01 00:48:22;;;;;;;9.27;6.53;;;;;;;;;;5036597;28;25102;-69
2021/12/01 00:50:48;;;;;;;7.73;6.97;;;;;;;;;;5036301;28;25115;-70
2021/12/01 00:53:14;;;;;;;8.20;7.30;;;;;;;;;;5037195;28;20345;-69
2021/12/01 00:55:41;;;;;;;7.97;7.27;;;;;;;;;;5032678;28;25097;-69
2021/12/01 00:58:07;;;;;;;8.20;7.40;;;;;;;;;;5035485;28;20656;-69
2021/12/01 01:00:32;;;;;;;11.00;9.17;;;;;;;;;;5030694;28;25097;-69
2021/12/01 01:02:58;;;;;;;10.20;9.10;;;;;;;;;;5035095;28;25073;-68
2021/12/01 01:05:24;;;;;;;9.73;8.77;;;;;;;;;;5037873;28;25057;-68
2021/12/01 01:07:50;;;;;;;13.00;11.57;;;;;;;;;;5031741;28;25179;-68
2021/12/01 01:18:18;;;;;;;14.47;13.00;;;;;;;;;;5039286;28;25201;-69
2021/12/01 01:20:43;;;;;;;13.70;12.27;;;;;;;;;;5037319;28;25101;-69
2021/12/01 01:23:09;;;;;;;13.57;12.17;;;;;;;;;;5039843;28;25069;-69
2021/12/01 01:25:34;;;;;;;15.30;13.70;;;;;;;;;;5036144;28;25079;-69
2021/12/01 01:27:59;;;;;;;14.60;13.20;;;;;;;;;;5037428;28;20238;-69
2021/12/01 01:30:25;;;;;;;16.60;14.77;;;;;;;;;;5035364;28;25079;-69
2021/12/01 01:32:51;;;;;;;17.63;15.20;;;;;;;;;;5037647;28;21057;-69
2021/12/01 01:35:18;;;;;;;18.90;16.30;;;;;;;;;;5033042;28;25133;-68
2021/12/01 01:37:44;;;;;;;19.07;17.07;;;;;;;;;;5030024;28;20456;-68
2021/12/01 01:40:10;;;;;;;16.93;14.90;;;;;;;;;;5033026;28;25117;-69
2021/12/01 01:42:35;;;;;;;18.33;16.00;;;;;;;;;;5037318;28;25123;-69
2021/12/01 01:45:01;;;;;;;18.43;16.40;;;;;;;;;;5038615;28;25115;-69
2021/12/01 01:47:26;;;;;;;19.00;16.17;;;;;;;;;;5036167;28;20210;-69
2021/12/01 01:50:02;;;;;;;18.93;15.73;;;;;;;;;;5033849;28;20805;-69
2021/12/01 01:52:29;;;;;;;16.50;14.90;;;;;;;;;;5033991;28;20260;-67
2021/12/01 01:54:54;;;;;;;17.90;16.00;;;;;;;;;;5035237;28;20441;-67
2021/12/01 01:57:20;;;;;;;18.27;14.63;;;;;;;;;;5036125;28;20434;-68
2021/12/01 01:59:46;;;;;;;17.87;15.20;;;;;;;;;;5037818;28;20190;-67
2021/12/01 02:02:11;;;;;;;23.20;15.70;;;;;;;;;;5035988;28;20440;-67
2021/12/01 02:04:36;;;;;;;19.03;14.37;;;;;;;;;;5042734;28;20222;-67
2021/12/01 02:07:11;;;;;;;19.33;14.33;;;;;;;;;;5040527;28;23269;-68
2021/12/01 02:09:37;;;;;;;22.67;15.63;;;;;;;;;;5038029;28;20269;-67
2021/12/01 02:12:02;;;;;;;21.57;14.60;;;;;;;;;;5037789;28;20846;-67
2021/12/01 02:14:28;;;;;;;22.37;15.60;;;;;;;;;;5036622;28;20206;-66
2021/12/01 02:16:57;;;;;;;23.13;15.80;;;;;;;;;;5038703;28;20183;-66
2021/12/01 02:19:23;;;;;;;16.50;13.80;;;;;;;;;;5041145;28;20195;-68
2021/12/01 02:21:48;;;;;;;20.00;14.17;;;;;;;;;;5038339;28;21054;-68
2021/12/01 02:24:14;;;;;;;18.73;14.17;;;;;;;;;;5038045;28;20806;-68
2021/12/01 02:26:49;;;;;;;20.80;11.87;;;;;;;;;;5039410;28;20633;-68
2021/12/01 02:29:15;;;;;;;17.50;11.90;;;;;;;;;;5039579;28;20495;-68
2021/12/01 02:31:43;;;;;;;16.80;10.27;;;;;;;;;;5037085;28;22081;-66
2021/12/01 02:34:10;;;;;;;11.83;10.30;;;;;;;;;;5039607;28;20452;-67
2021/12/01 02:36:37;;;;;;;11.70;7.70;;;;;;;;;;5042226;28;20448;-67
2021/12/01 02:39:08;;;;;;;10.30;7.13;;;;;;;;;;5041353;28;20487;-68
2021/12/01 02:41:35;;;;;;;12.00;7.63;;;;;;;;;;5039574;28;20948;-69
2021/12/01 02:44:01;;;;;;;6.93;6.00;;;;;;;;;;5041228;28;20469;-69
2021/12/01 02:46:27;;;;;;;13.23;7.00;;;;;;;;;;5042865;28;20468;-68
2021/12/01 02:48:52;;;;;;;7.00;5.00;;;;;;;;;;5039459;28;20477;-68
2021/12/01 02:51:26;;;;;;;8.20;5.40;;;;;;;;;;5039513;28;20257;-69
2021/12/01 02:53:51;;;;;;;5.97;4.20;;;;;;;;;;5033639;28;21688;-68
2021/12/01 02:56:17;;;;;;;6.37;3.73;;;;;;;;;;5036029;28;20473;-68
2021/12/01 02:58:43;;;;;;;6.33;3.20;;;;;;;;;;5035479;28;20309;-68
2021/12/01 03:01:13;;;;;;;6.43;3.20;;;;;;;;;;5031296;28;23090;-67
2021/12/01 03:03:39;;;;;;;7.10;3.30;;;;;;;;;;5041637;28;20474;-68
2021/12/01 03:06:16;;;;;;;4.50;2.50;;;;;;;;;;5038497;28;20467;-68
2021/12/01 03:08:42;;;;;;;2.80;2.60;;;;;;;;;;5036215;28;20567;-69
2021/12/01 03:11:07;;;;;;;6.30;2.70;;;;;;;;;;5037080;28;20933;-69
2021/12/01 03:13:33;;;;;;;4.63;3.13;;;;;;;;;;5038794;28;20476;-67
2021/12/01 03:15:58;;;;;;;3.57;2.77;;;;;;;;;;5037974;28;20179;-67
2021/12/01 03:18:24;;;;;;;4.50;4.10;;;;;;;;;;5036822;28;20179;-68
2021/12/01 03:20:50;;;;;;;4.40;4.00;;;;;;;;;;5036298;28;20179;-68
2021/12/01 03:23:19;;;;;;;4.83;4.20;;;;;;;;;;5040958;28;20952;-68
2021/12/01 03:25:48;;;;;;;4.83;4.43;;;;;;;;;;5038183;28;20548;-68
2021/12/01 03:28:16;;;;;;;6.20;4.30;;;;;;;;;;5041414;28;20949;-67
2021/12/01 03:30:42;;;;;;;6.80;4.73;;;;;;;;;;5033561;28;20444;-67
2021/12/01 03:33:09;;;;;;;5.50;4.40;;;;;;;;;;5038707;28;20546;-68
2021/12/01 03:35:34;;;;;;;4.93;4.53;;;;;;;;;;5038053;28;20194;-68
2021/12/01 03:38:00;;;;;;;8.00;4.47;;;;;;;;;;5042227;28;20461;-67
2021/12/01 03:40:25;;;;;;;4.27;3.87;;;;;;;;;;5037023;28;20237;-68
2021/12/01 03:42:50;;;;;;;4.93;4.03;;;;;;;;;;5038106;28;25059;-68
2021/12/01 03:45:16;;;;;;;3.63;3.43;;;;;;;;;;5036266;28;25131;-68
2021/12/01 03:47:42;;;;;;;4.87;3.40;;;;;;;;;;5037508;28;25145;-67
2021/12/01 03:50:08;;;;;;;3.83;3.33;;;;;;;;;;5035159;28;25158;-69
2021/12/01 03:52:34;;;;;;;3.50;2.73;;;;;;;;;;5037775;28;21042;-66
2021/12/01 03:54:59;;;;;;;3.50;2.77;;;;;;;;;;5035816;28;20441;-68
2021/12/01 03:57:25;;;;;;;2.27;2.13;;;;;;;;;;5036159;28;25068;-68
2021/12/01 03:59:51;;;;;;;2.40;1.93;;;;;;;;;;5036400;28;20201;-67
2021/12/01 04:02:16;;;;;;;1.60;1.43;;;;;;;;;;5029098;28;25119;-67
2021/12/01 04:04:41;;;;;;;2.90;1.27;;;;;;;;;;5036398;28;20225;-68
2021/12/01 04:07:07;;;;;;;4.73;1.10;;;;;;;;;;5033634;28;20624;-68
2021/12/01 04:09:32;;;;;;;0.80;0.80;;;;;;;;;;5034111;28;25058;-68
2021/12/01 04:11:58;;;;;;;1.50;0.90;;;;;;;;;;5030640;28;25082;-68
2021/12/01 04:14:23;;;;;;;2.20;0.80;;;;;;;;;;5030913;28;20255;-69
2021/12/01 04:16:49;;;;;;;0.93;0.60;;;;;;;;;;5034562;28;20308;-67
2021/12/01 04:19:16;;;;;;;1.97;0.60;;;;;;;;;;5034766;28;25072;-67
2021/12/01 04:21:42;;;;;;;0.90;0.80;;;;;;;;;;5034991;28;25055;-67
2021/12/01 04:24:08;;;;;;;1.00;0.73;;;;;;;;;;5036224;28;20467;-67
2021/12/01 04:26:36;;;;;;;2.23;1.00;;;;;;;;;;5035719;28;25115;-67
2021/12/01 04:29:03;;;;;;;1.90;1.00;;;;;;;;;;5036884;28;25097;-68
2021/12/01 04:31:29;;;;;;;3.13;1.10;;;;;;;;;;5031393;28;20487;-68
2021/12/01 04:33:58;;;;;;;3.23;1.10;;;;;;;;;;5029204;28;25104;-68
2021/12/01 04:36:36;;;;;;;5.20;1.10;;;;;;;;;;5033528;28;25116;-68
2021/12/01 04:39:03;;;;;;;7.30;1.10;;;;;;;;;;5038115;28;20537;-68
2021/12/01 04:41:30;;;;;;;5.63;1.40;;;;;;;;;;5039612;28;20571;-67
2021/12/01 04:43:59;;;;;;;7.47;1.20;;;;;;;;;;5038611;28;25112;-68
2021/12/01 04:46:25;;;;;;;7.37;1.70;;;;;;;;;;5036809;28;20455;-69
2021/12/01 04:48:53;;;;;;;2.73;1.03;;;;;;;;;;5034957;28;25119;-68
2021/12/01 04:51:18;;;;;;;1.57;1.00;;;;;;;;;;5036231;28;25118;-68
2021/12/01 04:53:44;;;;;;;6.20;1.13;;;;;;;;;;5035590;28;25103;-68
2021/12/01 04:56:10;;;;;;;1.60;0.90;;;;;;;;;;5036037;28;20187;-67
2021/12/01 04:58:35;;;;;;;7.40;1.07;;;;;;;;;;5036946;28;20248;-68
2021/12/01 05:01:01;;;;;;;3.03;1.43;;;;;;;;;;5030928;28;20193;-68
2021/12/01 05:03:33;;;;;;;4.03;1.10;;;;;;;;;;5031129;28;25053;-68
2021/12/01 05:05:58;;;;;;;1.70;1.10;;;;;;;;;;5034312;28;22065;-67
2021/12/01 05:08:23;;;;;;;3.70;1.30;;;;;;;;;;5032773;28;25108;-69
2021/12/01 05:10:49;;;;;;;6.30;1.20;;;;;;;;;;5031696;28;20223;-69
2021/12/01 05:13:15;;;;;;;3.87;1.67;;;;;;;;;;5035179;28;20244;-68
2021/12/01 05:15:40;;;;;;;3.90;1.70;;;;;;;;;;5031642;28;20435;-69
2021/12/01 05:18:08;;;;;;;3.53;1.77;;;;;;;;;;5034981;28;25099;-68
2021/12/01 05:20:33;;;;;;;2.93;1.60;;;;;;;;;;5031826;28;26196;-69
2021/12/01 05:22:58;;;;;;;3.03;2.00;;;;;;;;;;5033982;28;25176;-67
2021/12/01 05:25:27;;;;;;;5.00;1.70;;;;;;;;;;5038467;28;25104;-68
2021/12/01 05:27:52;;;;;;;3.70;1.70;;;;;;;;;;5033042;28;25146;-68
2021/12/01 05:30:21;;;;;;;2.13;1.57;;;;;;;;;;5050905;28;20440;-67
2021/12/01 05:32:47;;;;;;;2.33;1.80;;;;;;;;;;5040928;28;21119;-68
2021/12/01 05:35:12;;;;;;;3.57;1.53;;;;;;;;;;5040109;28;21053;-69
2021/12/01 05:37:38;;;;;;;2.80;1.67;;;;;;;;;;5040020;28;20937;-69
2021/12/01 05:40:03;;;;;;;2.87;1.60;;;;;;;;;;5033329;28;20203;-68
2021/12/01 05:42:29;;;;;;;3.43;2.10;;;;;;;;;;5036990;28;25085;-67
2021/12/01 05:44:55;;;;;;;3.43;1.67;;;;;;;;;;5035083;28;25092;-69
2021/12/01 05:47:21;;;;;;;2.30;2.03;;;;;;;;;;5039364;28;25122;-69
2021/12/01 05:49:46;;;;;;;2.63;1.27;;;;;;;;;;5038992;28;25187;-68
2021/12/01 05:52:13;;;;;;;1.73;1.40;;;;;;;;;;5037408;28;25095;-67
2021/12/01 05:54:39;;;;;;;1.47;1.37;;;;;;;;;;5040357;28;20217;-69
2021/12/01 05:57:04;;;;;;;2.70;1.60;;;;;;;;;;5036773;28;20446;-69
2021/12/01 05:59:29;;;;;;;1.93;1.73;;;;;;;;;;5035213;28;20820;-68
2021/12/01 06:01:55;;;;;;;1.40;1.30;;;;;;;;;;5034619;28;25067;-66
2021/12/01 06:04:23;;;;;;;1.13;1.10;;;;;;;;;;5037587;28;20269;-68
2021/12/01 06:06:49;;;;;;;1.67;1.20;;;;;;;;;;5034590;28;20788;-67
2021/12/01 06:09:14;;;;;;;1.00;1.00;;;;;;;;;;5040177;28;25181;-68
2021/12/01 06:11:40;;;;;;;2.50;1.30;;;;;;;;;;5035950;28;20294;-68
2021/12/01 06:14:11;;;;;;;1.20;1.10;;;;;;;;;;5031217;28;20277;-69
2021/12/01 06:16:37;;;;;;;1.67;1.37;;;;;;;;;;5037717;28;25120;-67
2021/12/01 06:19:02;;;;;;;2.23;1.10;;;;;;;;;;5038849;28;20435;-67
2021/12/01 06:21:28;;;;;;;1.60;1.50;;;;;;;;;;5036838;28;25072;-71
2021/12/01 06:23:53;;;;;;;1.60;1.50;;;;;;;;;;5040693;28;20677;-68
2021/12/01 06:26:18;;;;;;;1.00;1.00;;;;;;;;;;5042464;28;25076;-68
2021/12/01 06:28:44;;;;;;;1.80;1.60;;;;;;;;;;5036140;28;25072;-67
2021/12/01 06:31:09;;;;;;;1.70;1.50;;;;;;;;;;5040176;28;25069;-68
2021/12/01 06:33:35;;;;;;;1.50;1.40;;;;;;;;;;5034512;28;25166;-68
2021/12/01 06:36:00;;;;;;;1.47;1.30;;;;;;;;;;5039013;28;25066;-69
2021/12/01 06:38:26;;;;;;;2.20;1.37;;;;;;;;;;5038932;28;25070;-68
2021/12/01 06:40:51;;;;;;;2.30;1.63;;;;;;;;;;5007985;28;25153;-69
2021/12/01 06:43:16;;;;;;;3.00;1.70;;;;;;;;;;5028543;28;25082;-68
2021/12/01 06:45:42;;;;;;;2.50;1.20;;;;;;;;;;5031819;28;25123;-68
2021/12/01 06:48:07;;;;;;;1.93;1.83;;;;;;;;;;5031356;28;20183;-69
2021/12/01 06:50:33;;;;;;;3.50;1.60;;;;;;;;;;5031211;28;25072;-71
2021/12/01 06:52:58;;;;;;;6.33;1.93;;;;;;;;;;5035436;28;20226;-68
2021/12/01 06:55:23;;;;;;;3.83;1.57;;;;;;;;;;5030377;28;20241;-68
2021/12/01 06:57:49;;;;;;;2.03;1.30;;;;;;;;;;5029780;28;20194;-67
2021/12/01 07:00:16;;;;;;;3.83;1.80;;;;;;;;;;5031582;28;20222;-69
2021/12/01 07:02:41;;;;;;;1.27;1.17;;;;;;;;;;5035903;28;20203;-67
2021/12/01 07:05:07;;;;;;;2.70;1.70;;;;;;;;;;5032647;28;25126;-67
2021/12/01 07:07:33;;;;;;;1.37;1.10;;;;;;;;;;5029181;28;25130;-68
2021/12/01 07:09:58;;;;;;;1.30;1.10;;;;;;;;;;5031577;28;25222;-68
2021/12/01 07:12:24;;;;;;;1.77;1.20;;;;;;;;;;5037510;28;20317;-68
2021/12/01 07:14:50;;;;;;;3.53;1.40;;;;;;;;;;5032614;28;20188;-68
2021/12/01 07:17:15;;;;;;;4.73;1.20;;;;;;;;;;5031036;28;23083;-68
2021/12/01 07:19:40;;;;;;;3.10;1.30;;;;;;;;;;5034507;28;20430;-69
2021/12/01 07:22:06;;;;;;;1.00;1.00;;;;;;;;;;5034687;28;25119;-69
2021/12/01 07:24:31;;;;;;;2.80;1.50;;;;;;;;;;5035459;28;25107;-68
2021/12/01 07:26:57;;;;;;;1.43;1.10;;;;;;;;;;5032590;28;25086;-68
2021/12/01 07:29:22;;;;;;;1.70;1.20;;;;;;;;;;5032444;28;25178;-67
2021/12/01 07:31:48;;;;;;;1.17;1.17;;;;;;;;;;5032139;28;25362;-68
2021/12/01 07:34:14;;;;;;;3.93;1.20;;;;;;;;;;5029538;28;25071;-68
2021/12/01 07:36:40;;;;;;;4.00;1.60;;;;;;;;;;5031490;28;25121;-68
2021/12/01 07:39:08;;;;;;;1.40;1.30;;;;;;;;;;5026905;28;25095;-69
2021/12/01 07:41:34;;;;;;;1.50;1.37;;;;;;;;;;5030698;28;25116;-68
2021/12/01 07:43:59;;;;;;;2.17;1.43;;;;;;;;;;5043527;28;26165;-68
2021/12/01 07:46:24;;;;;;;1.70;1.37;;;;;;;;;;5029572;28;25078;-67
2021/12/01 07:48:50;;;;;;;1.43;1.30;;;;;;;;;;5028877;28;25112;-69
2021/12/01 07:51:15;;;;;;;1.57;1.33;;;;;;;;;;5034300;28;25106;-68
2021/12/01 07:53:41;;;;;;;3.87;1.30;;;;;;;;;;5032143;28;25075;-68
2021/12/01 07:56:06;;;;;;;4.97;1.10;;;;;;;;;;5028050;28;25082;-69
2021/12/01 07:58:32;;;;;;;1.50;1.40;;;;;;;;;;5034618;28;20205;-68
2021/12/01 08:00:57;;;;;;;1.47;1.17;;;;;;;;;;5026966;28;20599;-69
2021/12/01 08:03:22;;;;;;;1.43;1.20;;;;;;;;;;5023836;28;20226;-68
2021/12/01 08:05:48;;;;;;;5.70;1.60;;;;;;;;;;5024902;28;20187;-69
2021/12/01 08:08:13;;;;;;;1.50;1.40;;;;;;;;;;5025715;28;20190;-67
2021/12/01 08:10:39;;;;;;;1.20;1.00;;;;;;;;;;5024541;28;20199;-68
2021/12/01 08:13:05;;;;;;;8.43;1.17;;;;;;;;;;5036304;28;20237;-68
2021/12/01 08:15:30;;;;;;;2.60;1.20;;;;;;;;;;5028350;28;20184;-69
2021/12/01 08:17:56;;;;;;;1.10;1.10;;;;;;;;;;5028463;28;21244;-67
2021/12/01 08:20:21;;;;;;;3.87;1.40;;;;;;;;;;5024694;28;25095;-68
2021/12/01 08:22:47;;;;;;;3.47;1.40;;;;;;;;;;5027058;28;25120;-68
2021/12/01 08:25:13;;;;;;;1.93;1.50;;;;;;;;;;5027462;28;25092;-70
2021/12/01 08:27:38;;;;;;;3.13;1.30;;;;;;;;;;5026478;28;25083;-68
2021/12/01 08:30:05;;;;;;;5.60;1.37;;;;;;;;;;5031591;28;25170;-68
2021/12/01 08:32:33;;;;;;;2.00;1.23;;;;;;;;;;5023531;28;20290;-70
2021/12/01 08:34:59;;;;;;;1.90;1.30;;;;;;;;;;5032435;28;22515;-69
2021/12/01 08:37:24;;;;;;;1.30;1.20;;;;;;;;;;5029669;28;20902;-69
2021/12/01 08:39:50;;;;;;;2.33;1.70;;;;;;;;;;5034021;28;20621;-69
2021/12/01 08:42:17;;;;;;;2.03;1.67;;;;;;;;;;5028480;28;20213;-68
2021/12/01 08:44:45;;;;;;;3.17;1.77;;;;;;;;;;5025687;28;20462;-68
2021/12/01 08:47:11;;;;;;;4.70;1.80;;;;;;;;;;5025905;28;20448;-70
2021/12/01 08:49:36;;;;;;;1.60;1.50;;;;;;;;;;5029715;28;25106;-69
2021/12/01 08:52:02;;;;;;;3.23;1.73;;;;;;;;;;5028825;28;20511;-68
2021/12/01 08:54:27;;;;;;;3.43;2.00;;;;;;;;;;5030509;28;25132;-68
2021/12/01 08:56:52;;;;;;;4.70;2.10;;;;;;;;;;5020594;28;25076;-68
2021/12/01 08:59:17;;;;;;;3.60;1.90;;;;;;;;;;5024821;28;25080;-68
2021/12/01 09:01:43;;;;;;;4.40;2.43;;;;;;;;;;5029658;28;25073;-68
2021/12/01 09:04:08;;;;;;;3.43;1.70;;;;;;;;;;5025057;28;20264;-68
2021/12/01 09:06:33;;;;;;;5.97;2.03;;;;;;;;;;5032381;28;20189;-68
2021/12/01 09:08:59;;;;;;;5.20;1.90;;;;;;;;;;5035337;28;20175;-71
2021/12/01 09:11:27;;;;;;;5.10;1.67;;;;;;;;;;5039457;28;20777;-71
2021/12/01 09:13:53;;;;;;;3.43;1.63;;;;;;;;;;5036138;28;20202;-69
2021/12/01 09:16:21;;;;;;;3.13;1.20;;;;;;;;;;5034616;28;20437;-68
2021/12/01 09:18:46;;;;;;;1.93;1.23;;;;;;;;;;5038181;28;20667;-68
2021/12/01 09:21:15;;;;;;;3.13;1.70;;;;;;;;;;5037949;28;20457;-68
2021/12/01 09:23:40;;;;;;;2.20;1.50;;;;;;;;;;5037672;28;20523;-68
2021/12/01 09:26:05;;;;;;;3.60;1.83;;;;;;;;;;5035289;28;20522;-68
2021/12/01 09:28:31;;;;;;;6.17;1.43;;;;;;;;;;5031448;28;20353;-68
2021/12/01 09:30:57;;;;;;;6.23;1.20;;;;;;;;;;5033556;28;22622;-69
2021/12/01 09:33:23;;;;;;;4.90;1.13;;;;;;;;;;5038148;28;20218;-69
2021/12/01 09:35:51;;;;;;;4.67;1.30;;;;;;;;;;5028887;28;20465;-69
2021/12/01 09:38:18;;;;;;;6.27;2.13;;;;;;;;;;5038394;28;20448;-68
2021/12/01 09:40:46;;;;;;;8.23;1.47;;;;;;;;;;5035551;28;20440;-68
2021/12/01 09:43:11;;;;;;;11.10;1.30;;;;;;;;;;5029429;28;21513;-69
2021/12/01 09:45:37;;;;;;;4.63;1.53;;;;;;;;;;5028291;28;20540;-68
2021/12/01 09:48:02;;;;;;;2.67;1.10;;;;;;;;;;5038157;28;20182;-67
2021/12/01 09:50:28;;;;;;;7.97;1.87;;;;;;;;;;5029386;28;20556;-68
2021/12/01 09:52:54;;;;;;;5.30;0.93;;;;;;;;;;5029142;28;20219;-69
2021/12/01 09:55:19;;;;;;;3.90;1.30;;;;;;;;;;5033412;28;20194;-69
2021/12/01 09:57:57;;;;;;;10.17;1.43;;;;;;;;;;5034691;28;21081;-70
2021/12/01 10:00:22;;;;;;;6.10;1.40;;;;;;;;;;5035230;28;20203;-71
2021/12/01 10:02:48;;;;;;;6.80;1.30;;;;;;;;;;5020730;28;20738;-67
2021/12/01 10:05:15;;;;;;;7.77;1.70;;;;;;;;;;5029055;28;20183;-66
2021/12/01 10:07:41;;;;;;;8.67;1.83;;;;;;;;;;5030449;28;20317;-69
2021/12/01 10:10:07;;;;;;;7.00;2.17;;;;;;;;;;5029148;28;20451;-67
2021/12/01 10:12:47;;;;;;;6.13;1.30;;;;;;;;;;5038151;28;21640;-67
2021/12/01 10:15:16;;;;;;;8.53;1.40;;;;;;;;;;5034645;28;20425;-68
2021/12/01 10:17:58;;;;;;;4.33;1.30;;;;;;;;;;5037959;28;20466;-68
2021/12/01 10:20:31;;;;;;;3.97;0.80;;;;;;;;;;5030805;28;20459;-74
2021/12/01 10:23:16;;;;;;;5.73;1.57;;;;;;;;;;5029913;28;20472;-68
2021/12/01 10:25:42;;;;;;;6.17;1.60;;;;;;;;;;5030286;28;20494;-69
2021/12/01 10:28:13;;;;;;;7.27;1.27;;;;;;;;;;5041003;28;20449;-68
2021/12/01 10:30:45;;;;;;;8.80;1.43;;;;;;;;;;5031229;28;20894;-69
2021/12/01 10:33:17;;;;;;;6.90;2.23;;;;;;;;;;5033949;28;20988;-71
2021/12/01 10:35:43;;;;;;;2.97;0.97;;;;;;;;;;5033014;28;20499;-71
2021/12/01 10:38:09;;;;;;;7.83;1.33;;;;;;;;;;5029067;28;21082;-69
2021/12/01 10:40:35;;;;;;;8.50;1.40;;;;;;;;;;5032754;28;20955;-70
2021/12/01 10:43:05;;;;;;;8.80;1.77;;;;;;;;;;5029332;28;20463;-68
2021/12/01 10:45:32;;;;;;;12.43;1.63;;;;;;;;;;5027842;28;20506;-69
2021/12/01 10:47:58;;;;;;;5.53;1.30;;;;;;;;;;5028356;28;20809;-67
2021/12/01 10:50:25;;;;;;;8.30;2.07;;;;;;;;;;5032500;28;20543;-67
2021/12/01 10:52:53;;;;;;;10.03;2.17;;;;;;;;;;5022636;28;20218;-67
2021/12/01 10:55:18;;;;;;;36.60;3.20;;;;;;;;;;5031729;28;20520;-68
2021/12/01 10:58:03;;;;;;;15.13;2.57;;;;;;;;;;5031229;28;20810;-72
2021/12/01 11:00:28;;;;;;;17.40;2.40;;;;;;;;;;5028443;28;20198;-70
2021/12/01 11:03:05;;;;;;;7.73;1.60;;;;;;;;;;5027869;28;20472;-69
2021/12/01 11:05:31;;;;;;;5.20;1.47;;;;;;;;;;5032121;28;21001;-69
2021/12/01 11:08:08;;;;;;;7.90;1.90;;;;;;;;;;5030750;28;20441;-71
2021/12/01 11:10:34;;;;;;;9.63;1.83;;;;;;;;;;5030586;28;20430;-67
2021/12/01 11:13:01;;;;;;;9.20;1.90;;;;;;;;;;5034345;28;21323;-68
2021/12/01 11:15:30;;;;;;;9.37;1.97;;;;;;;;;;5033958;28;20538;-68
2021/12/01 11:17:56;;;;;;;7.07;2.30;;;;;;;;;;5036017;28;20886;-67
2021/12/01 11:20:30;;;;;;;13.27;2.10;;;;;;;;;;5037185;28;20471;-68
2021/12/01 11:23:06;;;;;;;9.97;3.17;;;;;;;;;;5035906;28;25168;-74
2021/12/01 11:25:32;;;;;;;7.53;2.10;;;;;;;;;;5035256;28;20977;-70
2021/12/01 11:27:59;;;;;;;6.53;1.83;;;;;;;;;;5033643;28;25110;-70
2021/12/01 11:30:24;;;;;;;11.60;2.53;;;;;;;;;;5040979;28;25094;-76
2021/12/01 11:32:50;;;;;;;9.90;2.20;;;;;;;;;;5032357;28;20843;-70
2021/12/01 11:35:15;;;;;;;15.83;2.50;;;;;;;;;;5041421;28;25119;-70
2021/12/01 11:37:41;;;;;;;14.90;2.53;;;;;;;;;;5038134;28;25067;-71
2021/12/01 11:40:06;;;;;;;17.27;2.80;;;;;;;;;;5034120;28;25098;-68
2021/12/01 11:42:32;;;;;;;5.57;1.90;;;;;;;;;;5036805;28;25109;-69
2021/12/01 11:44:58;;;;;;;9.70;2.00;;;;;;;;;;5037790;28;20216;-72
2021/12/01 11:47:24;;;;;;;7.60;1.80;;;;;;;;;;5035508;28;20278;-68
2021/12/01 11:49:50;;;;;;;9.20;1.90;;;;;;;;;;5035300;28;20437;-73
2021/12/01 11:52:16;;;;;;;9.13;2.23;;;;;;;;;;5035146;28;25109;-69
2021/12/01 11:54:43;;;;;;;14.27;3.00;;;;;;;;;;5036352;28;25109;-70
2021/12/01 11:57:09;;;;;;;11.13;2.73;;;;;;;;;;5034779;28;25176;-72
2021/12/01 11:59:43;;;;;;;14.60;2.83;;;;;;;;;;5036877;28;25114;-69
2021/12/01 12:02:08;;;;;;;19.03;4.00;;;;;;;;;;5031857;28;25111;-70
2021/12/01 12:04:41;;;;;;;11.77;2.87;;;;;;;;;;5036437;28;21115;-74
2021/12/01 12:07:08;;;;;;;16.73;3.07;;;;;;;;;;5037545;28;25082;-72
2021/12/01 12:09:34;;;;;;;14.53;3.37;;;;;;;;;;5035856;28;25149;-71
2021/12/01 12:12:00;;;;;;;16.40;3.40;;;;;;;;;;5036687;28;25084;-74
2021/12/01 12:14:25;;;;;;;17.63;4.17;;;;;;;;;;5028701;28;25165;-71
2021/12/01 12:17:04;;;;;;;17.00;4.03;;;;;;;;;;5026023;28;20190;-74
2021/12/01 12:19:51;;;;;;;13.40;2.80;;;;;;;;;;5034367;28;20190;-85
2021/12/01 12:22:39;;;;;;;18.90;4.20;;;;;;;;;;5032311;28;20514;-70
2021/12/01 12:25:08;;;;;;;18.70;4.10;;;;;;;;;;5021743;28;20448;-73
2021/12/01 12:27:35;;;;;;;27.03;4.70;;;;;;;;;;5032323;28;20460;-72
2021/12/01 12:30:03;;;;;;;22.47;3.87;;;;;;;;;;5028486;28;21855;-74
2021/12/01 12:32:32;;;;;;;17.20;4.13;;;;;;;;;;5028747;28;20465;-72
2021/12/01 12:35:01;;;;;;;23.33;3.90;;;;;;;;;;5034631;28;20425;-69
2021/12/01 12:37:27;;;;;;;14.80;3.90;;;;;;;;;;5036008;28;20441;-71
2021/12/01 12:39:53;;;;;;;19.77;3.60;;;;;;;;;;5032408;28;20446;-74
2021/12/01 12:42:19;;;;;;;17.83;2.57;;;;;;;;;;5030315;28;20853;-72
2021/12/01 12:44:45;;;;;;;11.57;2.60;;;;;;;;;;5033331;28;23284;-73
2021/12/01 12:47:14;;;;;;;15.00;3.53;;;;;;;;;;5033037;28;20190;-72
2021/12/01 12:49:42;;;;;;;12.93;2.87;;;;;;;;;;5034960;28;21014;-74
2021/12/01 12:52:26;;;;;;;14.10;2.57;;;;;;;;;;5032930;28;21222;-73
2021/12/01 12:54:52;;;;;;;23.27;2.70;;;;;;;;;;5029966;28;20445;-69
2021/12/01 12:57:17;;;;;;;9.33;2.00;;;;;;;;;;5033160;28;20971;-74
2021/12/01 12:59:48;;;;;;;8.70;2.00;;;;;;;;;;5031569;28;20182;-79
2021/12/01 13:02:17;;;;;;;10.03;2.13;;;;;;;;;;5036309;28;20258;-89
2021/12/01 13:04:49;;;;;;;10.87;2.63;;;;;;;;;;5034073;28;20482;-80
2021/12/01 13:07:33;;;;;;;9.97;2.47;;;;;;;;;;5039487;28;20433;-85
2021/12/01 13:10:01;;;;;;;11.67;2.60;;;;;;;;;;5036953;28;20449;-77
2021/12/01 13:12:37;;;;;;;;;;;;;;;;;;;;;
2021/12/01 13:15:02;;;;;;;7.90;1.93;;;;;;;;;;5031021;28;23555;-75
2021/12/01 13:17:28;;;;;;;11.40;2.70;;;;;;;;;;5031868;28;20224;-77
2021/12/01 13:20:00;;;;;;;10.30;2.17;;;;;;;;;;5025572;28;20187;-77
2021/12/01 13:22:25;;;;;;;16.90;3.03;;;;;;;;;;5028560;28;20187;-75
2021/12/01 13:24:50;;;;;;;9.40;2.50;;;;;;;;;;5035583;28;20476;-79
2021/12/01 13:27:16;;;;;;;16.10;2.60;;;;;;;;;;5031082;28;20187;-75
2021/12/01 13:29:41;;;;;;;14.63;3.63;;;;;;;;;;5031941;28;20205;-73
2021/12/01 13:32:06;;;;;;;16.27;2.50;;;;;;;;;;5027859;28;20214;-75
2021/12/01 13:34:34;;;;;;;10.20;2.63;;;;;;;;;;5032663;28;25073;-77
2021/12/01 13:37:02;;;;;;;14.77;2.17;;;;;;;;;;5028622;28;25514;-76
2021/12/01 13:39:29;;;;;;;15.87;2.87;;;;;;;;;;5029520;28;20447;-74
2021/12/01 13:42:24;;;;;;;8.27;2.63;;;;;;;;;;5034494;28;25184;-75
2021/12/01 13:44:50;;;;;;;14.00;2.63;;;;;;;;;;5032248;28;25110;-74
2021/12/01 13:47:17;;;;;;;16.90;2.80;;;;;;;;;;5026543;28;25131;-74
2021/12/01 13:49:43;;;;;;;16.53;3.17;;;;;;;;;;5028530;28;25301;-74
2021/12/01 13:52:09;;;;;;;12.03;3.13;;;;;;;;;;5038491;28;25094;-75
2021/12/01 13:54:35;;;;;;;23.33;5.00;;;;;;;;;;5040892;28;25084;-76
2021/12/01 13:57:06;;;;;;;22.10;3.77;;;;;;;;;;5037529;28;25149;-74
2021/12/01 13:59:46;;;;;;;11.97;2.77;;;;;;;;;;5043852;28;20613;-72
2021/12/01 14:02:19;;;;;;;18.77;3.67;;;;;;;;;;5037014;28;20499;-75
2021/12/01 14:04:47;;;;;;;20.20;3.20;;;;;;;;;;5038972;28;25123;-73
2021/12/01 14:07:12;;;;;;;14.97;2.10;;;;;;;;;;5039872;28;21322;-80
2021/12/01 14:09:41;;;;;;;22.03;4.10;;;;;;;;;;5040810;28;25226;-74
2021/12/01 14:12:14;;;;;;;15.47;4.27;;;;;;;;;;5041456;28;20540;-74
2021/12/01 14:14:40;;;;;;;11.33;2.40;;;;;;;;;;5038219;28;20573;-77
2021/12/01 14:17:05;;;;;;;17.43;3.10;;;;;;;;;;5038151;28;20452;-75
2021/12/01 14:19:32;;;;;;;17.80;3.20;;;;;;;;;;5038563;28;25065;-75
2021/12/01 14:21:58;;;;;;;17.90;3.70;;;;;;;;;;5034098;28;20286;-75
2021/12/01 14:24:30;;;;;;;20.10;3.27;;;;;;;;;;5038935;28;20526;-74
2021/12/01 14:26:55;;;;;;;18.87;3.30;;;;;;;;;;5035440;28;25082;-76
2021/12/01 14:29:23;;;;;;;13.37;3.23;;;;;;;;;;5037995;28;20445;-84
2021/12/01 14:32:02;;;;;;;16.20;3.60;;;;;;;;;;5030557;28;20217;-76
2021/12/01 14:34:33;;;;;;;17.57;3.90;;;;;;;;;;5029842;28;21022;-75
2021/12/01 14:36:59;;;;;;;15.53;3.20;;;;;;;;;;5038350;28;20511;-76
2021/12/01 14:39:25;;;;;;;13.57;2.70;;;;;;;;;;5037561;28;20460;-76
2021/12/01 14:41:51;;;;;;;15.73;3.00;;;;;;;;;;5035758;28;21001;-76
2021/12/01 14:44:17;;;;;;;13.77;3.07;;;;;;;;;;5039507;28;21045;-73
2021/12/01 14:46:43;;;;;;;10.70;2.67;;;;;;;;;;5037263;28;20429;-77